createdAt,value
2024-04-22T00:01:01.918Z,11.20
2024-04-22T00:03:29.111Z,11.20
2024-04-22T00:05:57.318Z,11.20
2024-04-22T00:08:24.483Z,11.20
2024-04-22T00:11:04.531Z,11.20
2024-04-22T00:13:33.765Z,11.20
2024-04-22T00:16:00.999Z,11.20
2024-04-22T00:18:28.137Z,11.10
2024-04-22T00:20:55.263Z,11.20
2024-04-22T00:23:22.612Z,11.20
2024-04-22T00:25:49.712Z,11.10
2024-04-22T00:28:16.936Z,11.10
2024-04-22T00:30:44.015Z,11.10
2024-04-22T00:33:11.676Z,11.00
2024-04-22T00:35:40.009Z,11.00
2024-04-22T00:38:07.887Z,11.00
2024-04-22T00:40:35.184Z,11.00
2024-04-22T00:43:02.521Z,11.00
2024-04-22T00:45:29.886Z,10.90
2024-04-22T00:47:57.205Z,10.90
2024-04-22T00:50:25.683Z,10.90
2024-04-22T00:52:53.984Z,10.90
2024-04-22T00:55:21.718Z,10.80
2024-04-22T00:57:49.050Z,10.90
2024-04-22T01:00:16.609Z,10.90
2024-04-22T01:02:43.805Z,10.90
2024-04-22T01:05:10.989Z,10.90
2024-04-22T01:07:39.117Z,10.90
2024-04-22T01:10:06.595Z,10.90
2024-04-22T01:12:34.062Z,10.90
2024-04-22T01:15:01.292Z,10.90
2024-04-22T01:17:40.277Z,10.80
2024-04-22T01:20:09.272Z,10.80
2024-04-22T01:22:36.510Z,10.70
2024-04-22T01:25:05.085Z,10.70
2024-04-22T01:27:33.516Z,10.70
2024-04-22T01:30:01.632Z,10.70
2024-04-22T01:32:28.857Z,10.60
2024-04-22T01:34:58.316Z,10.60
2024-04-22T01:37:25.741Z,10.60
2024-04-22T01:39:52.831Z,10.60
2024-04-22T01:42:21.004Z,10.60
2024-04-22T01:44:50.887Z,10.60
2024-04-22T01:47:18.647Z,10.60
2024-04-22T01:49:45.814Z,10.60
2024-04-22T01:52:17.659Z,10.70
2024-04-22T01:54:48.984Z,10.60
2024-04-22T01:57:16.075Z,10.60
2024-04-22T01:59:43.098Z,10.60
2024-04-22T02:02:10.178Z,10.60
2024-04-22T02:04:38.427Z,10.60
2024-04-22T02:07:05.640Z,10.60
2024-04-22T02:09:33.786Z,10.60
2024-04-22T02:12:00.945Z,10.60
2024-04-22T02:14:28.821Z,10.60
2024-04-22T02:16:57.368Z,10.60
2024-04-22T02:19:24.420Z,10.50
2024-04-22T02:21:52.900Z,10.50
2024-04-22T02:24:23.992Z,10.50
2024-04-22T02:26:51.001Z,10.50
2024-04-22T02:29:18.053Z,10.50
2024-04-22T02:31:47.172Z,10.40
2024-04-22T02:34:14.390Z,10.40
2024-04-22T02:36:43.394Z,10.40
2024-04-22T02:39:10.825Z,10.40
2024-04-22T02:41:37.861Z,10.40
2024-04-22T02:44:05.051Z,10.40
2024-04-22T02:46:32.134Z,10.40
2024-04-22T02:48:59.266Z,10.40
2024-04-22T02:51:26.440Z,10.40
2024-04-22T02:53:53.451Z,10.30
2024-04-22T02:56:20.470Z,10.30
2024-04-22T02:58:47.849Z,10.30
2024-04-22T03:01:15.144Z,10.30
2024-04-22T03:03:42.723Z,10.20
2024-04-22T03:06:09.887Z,10.20
2024-04-22T03:08:39.180Z,10.10
2024-04-22T03:11:06.259Z,10.10
2024-04-22T03:13:33.364Z,10.10
2024-04-22T03:16:00.416Z,10.00
2024-04-22T03:18:27.436Z,10.00
2024-04-22T03:20:54.471Z,10.00
2024-04-22T03:23:21.611Z,10.00
2024-04-22T03:25:48.682Z,9.90
2024-04-22T03:28:15.753Z,9.90
2024-04-22T03:30:42.829Z,9.90
2024-04-22T03:33:09.907Z,9.90
2024-04-22T03:35:36.975Z,9.90
2024-04-22T03:38:04.129Z,9.90
2024-04-22T03:40:31.228Z,9.90
2024-04-22T03:42:58.289Z,9.80
2024-04-22T03:45:25.343Z,9.90
2024-04-22T03:48:11.040Z,9.80
2024-04-22T03:50:42.128Z,9.90
2024-04-22T03:53:09.389Z,9.80
2024-04-22T03:55:36.610Z,9.90
2024-04-22T03:58:03.802Z,9.80
2024-04-22T04:00:30.873Z,9.80
2024-04-22T04:02:58.557Z,9.80
2024-04-22T04:05:25.741Z,9.80
2024-04-22T04:07:52.847Z,9.80
2024-04-22T04:10:19.848Z,9.80
2024-04-22T04:12:46.872Z,9.80
2024-04-22T04:15:13.986Z,9.80
2024-04-22T04:17:41.136Z,9.80
2024-04-22T04:20:08.876Z,9.80
2024-04-22T04:22:36.019Z,9.80
2024-04-22T04:25:03.139Z,9.80
2024-04-22T04:27:30.179Z,9.80
2024-04-22T04:29:57.180Z,9.70
2024-04-22T04:32:25.223Z,9.80
2024-04-22T04:34:53.017Z,9.80
2024-04-22T04:37:20.198Z,9.80
2024-04-22T04:39:47.231Z,9.80
2024-04-22T04:42:14.316Z,9.80
2024-04-22T04:44:41.430Z,9.80
2024-04-22T04:47:08.637Z,9.80
2024-04-22T04:49:35.707Z,9.80
2024-04-22T04:52:03.207Z,9.80
2024-04-22T04:54:30.340Z,9.90
2024-04-22T04:56:57.370Z,9.80
2024-04-22T04:59:24.447Z,9.90
2024-04-22T05:01:53.308Z,9.90
2024-04-22T05:04:20.709Z,9.90
2024-04-22T05:06:48.948Z,9.90
2024-04-22T05:09:16.066Z,10.00
2024-04-22T05:11:43.153Z,9.90
2024-04-22T05:14:10.168Z,9.90
2024-04-22T05:16:37.482Z,10.00
2024-04-22T05:19:04.795Z,10.00
2024-04-22T05:21:31.873Z,10.00
2024-04-22T05:24:10.593Z,10.00
2024-04-22T05:26:38.973Z,10.10
2024-04-22T05:29:06.078Z,10.10
2024-04-22T05:31:33.154Z,10.10
2024-04-22T05:34:18.776Z,10.10
2024-04-22T05:36:45.860Z,10.20
2024-04-22T05:39:12.867Z,10.20
2024-04-22T05:41:40.718Z,10.30
2024-04-22T05:44:07.864Z,10.30
2024-04-22T05:46:34.914Z,10.30
2024-04-22T05:49:01.998Z,10.30
2024-04-22T05:51:29.091Z,10.40
2024-04-22T05:53:56.142Z,10.40
2024-04-22T05:56:23.224Z,10.40
2024-04-22T05:58:51.600Z,10.40
2024-04-22T06:01:18.768Z,10.50
2024-04-22T06:03:45.939Z,10.50
2024-04-22T06:06:13.026Z,10.50
2024-04-22T06:08:40.090Z,10.50
2024-04-22T06:11:07.324Z,10.50
2024-04-22T06:13:34.667Z,10.60
2024-04-22T06:16:01.837Z,10.50
2024-04-22T06:18:29.071Z,10.60
2024-04-22T06:20:56.381Z,10.60
2024-04-22T06:23:23.442Z,10.60
2024-04-22T06:25:50.542Z,10.70
2024-04-22T06:28:17.674Z,10.80
2024-04-22T06:30:46.242Z,10.80
2024-04-22T06:33:13.317Z,10.90
2024-04-22T06:35:40.390Z,11.00
2024-04-22T06:38:09.174Z,11.00
2024-04-22T06:40:36.426Z,11.10
2024-04-22T06:43:03.556Z,11.20
2024-04-22T06:45:31.337Z,11.30
2024-04-22T06:47:58.518Z,11.30
2024-04-22T06:50:25.582Z,11.40
2024-04-22T06:52:52.684Z,11.50
2024-04-22T06:55:20.662Z,11.60
2024-04-22T06:57:48.592Z,11.70
2024-04-22T07:00:16.389Z,11.80
2024-04-22T07:02:43.994Z,12.00
2024-04-22T07:05:11.162Z,12.10
2024-04-22T07:07:38.242Z,12.20
2024-04-22T07:10:05.649Z,12.30
2024-04-22T07:12:32.839Z,12.50
2024-04-22T07:14:59.903Z,12.70
2024-04-22T07:17:27.014Z,12.80
2024-04-22T07:19:55.069Z,12.90
2024-04-22T07:22:22.765Z,13.10
2024-04-22T07:24:57.513Z,13.20
2024-04-22T07:27:30.818Z,13.20
2024-04-22T07:30:00.585Z,13.30
2024-04-22T07:32:28.471Z,13.40
2024-04-22T07:34:55.965Z,13.50
2024-04-22T07:37:30.606Z,13.60
2024-04-22T07:40:16.540Z,13.70
2024-04-22T07:42:44.480Z,13.80
2024-04-22T07:45:11.684Z,14.00
2024-04-22T07:47:39.425Z,14.00
2024-04-22T07:50:07.092Z,14.10
2024-04-22T07:52:35.480Z,14.30
2024-04-22T07:55:04.828Z,14.40
2024-04-22T07:57:32.589Z,14.50
2024-04-22T08:00:00.012Z,14.60
2024-04-22T08:02:27.395Z,14.70
2024-04-22T08:04:54.687Z,14.70
2024-04-22T08:07:22.199Z,14.80
2024-04-22T08:09:49.617Z,14.80
2024-04-22T08:12:16.676Z,14.80
2024-04-22T08:14:44.483Z,14.90
2024-04-22T08:17:11.654Z,15.00
2024-04-22T08:19:39.487Z,15.10
2024-04-22T08:22:06.592Z,15.10
2024-04-22T08:24:33.614Z,15.20
2024-04-22T08:27:01.736Z,15.30
2024-04-22T08:29:28.742Z,15.30
2024-04-22T08:31:55.851Z,15.40
2024-04-22T08:34:22.959Z,15.40
2024-04-22T08:36:50.091Z,15.40
2024-04-22T08:39:17.128Z,15.40
2024-04-22T08:41:44.210Z,15.60
2024-04-22T08:44:11.434Z,15.60
2024-04-22T08:46:41.228Z,15.60
2024-04-22T08:49:08.329Z,15.60
2024-04-22T08:51:37.711Z,15.60
2024-04-22T08:54:05.457Z,15.70
2024-04-22T08:56:32.551Z,15.80
2024-04-22T08:58:59.527Z,16.00
2024-04-22T09:01:31.083Z,16.10
2024-04-22T09:03:59.191Z,16.00
2024-04-22T09:06:26.364Z,16.00
2024-04-22T09:08:54.638Z,16.00
2024-04-22T09:11:46.537Z,16.10
2024-04-22T09:14:09.106Z,16.10
2024-04-22T09:16:39.710Z,16.10
2024-04-22T09:19:06.982Z,16.00
2024-04-22T09:21:37.789Z,16.10
2024-04-22T09:24:08.685Z,16.30
2024-04-22T09:26:35.894Z,16.50
2024-04-22T09:29:05.486Z,16.70
2024-04-22T09:31:38.976Z,16.80
2024-04-22T09:34:06.860Z,16.90
2024-04-22T09:36:35.903Z,17.00
2024-04-22T09:39:04.739Z,16.90
2024-04-22T09:41:32.747Z,16.90
2024-04-22T09:44:07.855Z,16.80
2024-04-22T09:46:39.760Z,16.70
2024-04-22T09:49:09.782Z,16.40
2024-04-22T09:51:39.821Z,16.30
2024-04-22T09:54:07.076Z,16.00
2024-04-22T09:56:36.831Z,15.60
2024-04-22T09:59:05.077Z,15.20
2024-04-22T10:01:32.572Z,14.90
2024-04-22T10:04:00.206Z,14.70
2024-04-22T10:06:28.655Z,14.50
2024-04-22T10:08:55.820Z,14.30
2024-04-22T10:11:26.929Z,14.10
2024-04-22T10:13:55.185Z,13.90
2024-04-22T10:16:22.523Z,13.70
2024-04-22T10:18:50.442Z,13.40
2024-04-22T10:21:20.440Z,13.20
2024-04-22T10:23:48.756Z,12.90
2024-04-22T10:26:20.189Z,12.70
2024-04-22T10:28:48.051Z,12.50
2024-04-22T10:31:22.437Z,12.40
2024-04-22T10:33:50.525Z,12.20
2024-04-22T10:36:17.857Z,12.10
2024-04-22T10:38:44.892Z,12.00
2024-04-22T10:41:12.251Z,11.80
2024-04-22T10:43:39.834Z,11.90
2024-04-22T10:46:09.520Z,11.90
2024-04-22T10:48:40.647Z,11.90
2024-04-22T10:51:10.836Z,11.90
2024-04-22T10:53:37.966Z,11.90
2024-04-22T10:56:05.615Z,12.10
2024-04-22T10:58:32.711Z,12.30
2024-04-22T11:01:00.579Z,12.50
2024-04-22T11:03:28.273Z,12.90
2024-04-22T11:06:05.430Z,13.10
2024-04-22T11:08:32.876Z,13.40
2024-04-22T11:11:00.469Z,13.50
2024-04-22T11:13:27.740Z,13.60
2024-04-22T11:15:54.880Z,13.70
2024-04-22T11:18:22.416Z,13.70
2024-04-22T11:20:50.008Z,13.70
2024-04-22T11:23:17.284Z,13.80
2024-04-22T11:25:44.699Z,13.90
2024-04-22T11:28:11.786Z,14.00
2024-04-22T11:30:41.956Z,14.10
2024-04-22T11:33:09.606Z,14.20
2024-04-22T11:35:37.792Z,14.40
2024-04-22T11:38:25.301Z,14.60
2024-04-22T11:40:52.893Z,14.80
2024-04-22T11:43:20.436Z,15.10
2024-04-22T11:45:47.480Z,15.40
2024-04-22T11:48:14.536Z,15.70
2024-04-22T11:50:41.579Z,16.00
2024-04-22T11:53:18.152Z,16.20
2024-04-22T11:55:51.376Z,16.30
2024-04-22T11:58:19.820Z,16.40
2024-04-22T12:00:46.985Z,16.40
2024-04-22T12:03:14.166Z,16.30
2024-04-22T12:05:41.457Z,16.10
2024-04-22T12:08:12.330Z,16.00
2024-04-22T12:10:39.507Z,15.80
2024-04-22T12:13:06.598Z,15.60
2024-04-22T12:15:33.611Z,15.60
2024-04-22T12:18:00.815Z,15.70
2024-04-22T12:20:27.898Z,16.00
2024-04-22T12:22:55.069Z,16.20
2024-04-22T12:25:22.187Z,16.20
2024-04-22T12:27:49.479Z,16.20
2024-04-22T12:30:16.621Z,16.10
2024-04-22T12:32:49.639Z,16.00
2024-04-22T12:35:16.869Z,15.80
2024-04-22T12:37:43.934Z,15.70
2024-04-22T12:40:11.704Z,15.60
2024-04-22T12:42:39.192Z,15.40
2024-04-22T12:45:06.597Z,15.40
2024-04-22T12:47:52.295Z,15.40
2024-04-22T12:50:37.902Z,15.60
2024-04-22T12:53:05.186Z,15.80
2024-04-22T12:55:32.209Z,15.80
2024-04-22T12:57:59.290Z,15.90
2024-04-22T13:00:27.199Z,15.90
2024-04-22T13:02:54.753Z,15.70
2024-04-22T13:05:22.084Z,15.60
2024-04-22T13:07:49.957Z,15.60
2024-04-22T13:10:17.138Z,15.60
2024-04-22T13:12:44.290Z,15.40
2024-04-22T13:15:11.435Z,15.40
2024-04-22T13:17:38.590Z,15.20
2024-04-22T13:20:06.902Z,15.10
2024-04-22T13:22:34.044Z,15.00
2024-04-22T13:25:04.156Z,15.00
2024-04-22T13:27:35.208Z,15.00
2024-04-22T13:30:09.681Z,15.00
2024-04-22T13:32:42.269Z,15.00
2024-04-22T13:35:09.897Z,15.00
2024-04-22T13:37:40.101Z,15.00
2024-04-22T13:40:09.171Z,14.90
2024-04-22T13:42:39.669Z,14.90
2024-04-22T13:45:09.660Z,14.80
2024-04-22T13:47:36.761Z,14.90
2024-04-22T13:50:04.152Z,14.80
2024-04-22T13:52:32.058Z,14.80
2024-04-22T13:54:59.595Z,14.80
2024-04-22T13:57:26.912Z,14.60
2024-04-22T13:59:54.002Z,14.50
2024-04-22T14:02:21.153Z,14.40
2024-04-22T14:04:48.400Z,14.40
2024-04-22T14:07:17.367Z,14.50
2024-04-22T14:09:44.565Z,14.50
2024-04-22T14:12:11.658Z,14.60
2024-04-22T14:14:39.175Z,14.70
2024-04-22T14:17:08.364Z,14.60
2024-04-22T14:19:35.947Z,14.60
2024-04-22T14:22:03.660Z,14.60
2024-04-22T14:24:30.720Z,14.70
2024-04-22T14:26:57.720Z,14.70
2024-04-22T14:29:28.674Z,14.70
2024-04-22T14:31:55.796Z,14.70
2024-04-22T14:34:23.075Z,14.70
2024-04-22T14:36:50.134Z,14.70
2024-04-22T14:39:17.190Z,14.70
2024-04-22T14:41:45.122Z,14.70
2024-04-22T14:44:12.312Z,14.60
2024-04-22T14:46:42.420Z,14.60
2024-04-22T14:49:09.657Z,14.60
2024-04-22T14:51:36.714Z,14.60
2024-04-22T14:54:03.793Z,14.70
2024-04-22T14:56:30.952Z,14.80
2024-04-22T14:58:58.459Z,14.80
2024-04-22T15:01:25.803Z,14.80
2024-04-22T15:03:53.072Z,14.90
2024-04-22T15:06:20.176Z,15.00
2024-04-22T15:08:48.219Z,15.00
2024-04-22T15:11:16.574Z,15.00
2024-04-22T15:13:43.870Z,15.00
2024-04-22T15:16:11.135Z,14.90
2024-04-22T15:18:38.349Z,14.80
2024-04-22T15:21:06.306Z,14.70
2024-04-22T15:23:33.372Z,14.60
2024-04-22T15:26:00.482Z,14.60
2024-04-22T15:28:27.532Z,14.50
2024-04-22T15:30:54.597Z,14.40
2024-04-22T15:33:22.743Z,14.40
2024-04-22T15:35:49.822Z,14.30
2024-04-22T15:38:16.950Z,14.40
2024-04-22T15:40:44.809Z,14.40
2024-04-22T15:43:12.155Z,14.40
2024-04-22T15:45:40.488Z,14.40
2024-04-22T15:48:08.005Z,14.30
2024-04-22T15:50:35.390Z,14.30
2024-04-22T15:53:02.564Z,14.30
2024-04-22T15:55:29.708Z,14.30
2024-04-22T15:57:56.818Z,14.30
2024-04-22T16:00:23.914Z,14.30
2024-04-22T16:02:51.034Z,14.30
2024-04-22T16:05:18.260Z,14.30
2024-04-22T16:07:45.393Z,14.30
2024-04-22T16:10:12.664Z,14.40
2024-04-22T16:12:39.689Z,14.30
2024-04-22T16:15:06.867Z,14.30
2024-04-22T16:17:33.929Z,14.30
2024-04-22T16:20:01.117Z,14.30
2024-04-22T16:22:28.228Z,14.30
2024-04-22T16:24:55.311Z,14.30
2024-04-22T16:27:22.400Z,14.30
2024-04-22T16:29:49.399Z,14.30
2024-04-22T16:32:16.584Z,14.30
2024-04-22T16:34:44.300Z,14.30
2024-04-22T16:37:11.352Z,14.30
2024-04-22T16:39:39.943Z,14.30
2024-04-22T16:42:07.046Z,14.30
2024-04-22T16:44:34.120Z,14.30
2024-04-22T16:47:01.292Z,14.30
2024-04-22T16:49:28.382Z,14.30
2024-04-22T16:51:55.469Z,14.30
2024-04-22T16:54:22.544Z,14.30
2024-04-22T16:56:49.535Z,14.20
2024-04-22T16:59:16.984Z,14.20
2024-04-22T17:01:44.115Z,14.20
2024-04-22T17:04:11.339Z,14.20
2024-04-22T17:06:38.861Z,14.10
2024-04-22T17:09:05.936Z,14.00
2024-04-22T17:11:33.010Z,13.90
2024-04-22T17:14:03.578Z,13.80
2024-04-22T17:16:31.358Z,13.80
2024-04-22T17:18:59.253Z,13.70
2024-04-22T17:21:26.288Z,13.60
2024-04-22T17:23:53.635Z,13.60
2024-04-22T17:26:20.652Z,13.50
2024-04-22T17:28:47.714Z,13.50
2024-04-22T17:31:15.284Z,13.50
2024-04-22T17:33:42.660Z,13.40
2024-04-22T17:36:10.443Z,13.30
2024-04-22T17:38:37.986Z,13.30
2024-04-22T17:41:05.335Z,13.20
2024-04-22T17:43:32.624Z,13.20
2024-04-22T17:46:04.543Z,13.20
2024-04-22T17:48:32.758Z,13.10
2024-04-22T17:51:00.266Z,13.10
2024-04-22T17:53:28.958Z,13.10
2024-04-22T17:55:56.136Z,13.10
2024-04-22T17:58:23.741Z,13.10
2024-04-22T18:00:51.154Z,13.00
2024-04-22T18:03:18.760Z,13.00
2024-04-22T18:05:46.687Z,13.00
2024-04-22T18:08:14.353Z,13.00
2024-04-22T18:10:46.118Z,13.00
2024-04-22T18:13:13.521Z,12.90
2024-04-22T18:15:40.774Z,12.90
2024-04-22T18:18:08.377Z,12.80
2024-04-22T18:20:35.455Z,12.80
2024-04-22T18:23:02.526Z,12.70
2024-04-22T18:25:36.585Z,12.70
2024-04-22T18:28:06.451Z,12.60
2024-04-22T18:30:34.211Z,12.50
2024-04-22T18:33:02.167Z,12.50
2024-04-22T18:35:29.915Z,12.40
2024-04-22T18:37:57.068Z,12.50
2024-04-22T18:40:24.317Z,12.40
2024-04-22T18:42:51.431Z,12.50
2024-04-22T18:45:18.968Z,12.40
2024-04-22T18:47:46.236Z,12.40
2024-04-22T18:50:13.394Z,12.40
2024-04-22T18:52:40.530Z,12.40
2024-04-22T18:55:07.738Z,12.30
2024-04-22T18:57:34.883Z,12.20
2024-04-22T19:00:02.498Z,12.20
2024-04-22T19:02:29.577Z,12.20
2024-04-22T19:04:57.613Z,12.20
2024-04-22T19:07:24.722Z,12.20
2024-04-22T19:09:53.401Z,12.10
2024-04-22T19:12:20.476Z,12.10
2024-04-22T19:14:47.477Z,12.00
2024-04-22T19:17:14.526Z,12.00
2024-04-22T19:19:41.576Z,12.10
2024-04-22T19:22:08.684Z,12.10
2024-04-22T19:24:39.054Z,12.10
2024-04-22T19:27:06.199Z,12.10
2024-04-22T19:29:34.278Z,12.10
2024-04-22T19:32:01.421Z,12.10
2024-04-22T19:34:28.714Z,12.00
2024-04-22T19:36:56.569Z,12.00
2024-04-22T19:39:25.046Z,12.00
2024-04-22T19:41:52.140Z,12.00
2024-04-22T19:44:19.235Z,11.90
2024-04-22T19:46:46.365Z,12.00
2024-04-22T19:49:13.497Z,11.90
2024-04-22T19:51:40.585Z,11.80
2024-04-22T19:54:07.948Z,11.80
2024-04-22T19:56:35.035Z,11.70
2024-04-22T19:59:02.034Z,11.70
2024-04-22T20:01:29.148Z,11.60
2024-04-22T20:03:56.864Z,11.60
2024-04-22T20:06:24.070Z,11.50
2024-04-22T20:08:51.593Z,11.50
2024-04-22T20:11:18.678Z,11.40
2024-04-22T20:13:45.886Z,11.30
2024-04-22T20:16:16.419Z,11.30
2024-04-22T20:18:54.938Z,11.30
2024-04-22T20:21:22.135Z,11.30
2024-04-22T20:23:49.457Z,11.20
2024-04-22T20:26:17.565Z,11.20
2024-04-22T20:28:44.741Z,11.10
2024-04-22T20:31:14.902Z,11.10
2024-04-22T20:33:42.073Z,11.20
2024-04-22T20:36:09.388Z,11.20
2024-04-22T20:38:36.531Z,11.10
2024-04-22T20:41:04.603Z,11.10
2024-04-22T20:43:32.708Z,11.10
2024-04-22T20:46:03.463Z,11.00
2024-04-22T20:48:34.042Z,11.00
2024-04-22T20:51:03.115Z,11.00
2024-04-22T20:53:31.001Z,11.00
2024-04-22T20:56:03.294Z,10.90
2024-04-22T20:58:30.974Z,10.90
2024-04-22T21:00:59.706Z,10.90
2024-04-22T21:03:27.578Z,10.90
2024-04-22T21:05:59.104Z,10.90
2024-04-22T21:08:29.470Z,10.90
2024-04-22T21:11:00.000Z,10.90
2024-04-22T21:13:27.204Z,10.90
2024-04-22T21:15:54.667Z,10.90
2024-04-22T21:18:22.744Z,10.80
2024-04-22T21:20:50.543Z,10.80
2024-04-22T21:23:17.554Z,10.80
2024-04-22T21:25:44.757Z,10.70
2024-04-22T21:28:11.861Z,10.70
2024-04-22T21:30:38.942Z,10.70
2024-04-22T21:33:18.678Z,10.60
2024-04-22T21:35:53.640Z,10.60
2024-04-22T21:38:20.684Z,10.60
2024-04-22T21:40:48.284Z,10.50
2024-04-22T21:43:15.404Z,10.50
2024-04-22T21:45:42.897Z,10.50
2024-04-22T21:48:09.971Z,10.50
2024-04-22T21:50:37.233Z,10.40
2024-04-22T21:53:05.440Z,10.40
2024-04-22T21:55:41.319Z,10.40
2024-04-22T21:58:47.679Z,10.40
2024-04-22T22:01:53.898Z,10.40
2024-04-22T22:04:58.904Z,10.40
2024-04-22T22:07:28.694Z,10.40
2024-04-22T22:09:56.263Z,10.40
2024-04-22T22:12:24.547Z,10.40
2024-04-22T22:14:52.760Z,10.30
2024-04-22T22:17:20.199Z,10.30
2024-04-22T22:19:49.411Z,10.30
2024-04-22T22:22:17.516Z,10.30
2024-04-22T22:24:45.996Z,10.30
2024-04-22T22:27:14.975Z,10.30
2024-04-22T22:29:42.926Z,10.30
2024-04-22T22:32:10.667Z,10.30
2024-04-22T22:34:38.201Z,10.20
2024-04-22T22:37:06.971Z,10.20
2024-04-22T22:39:34.802Z,10.10
2024-04-22T22:42:02.149Z,10.10
2024-04-22T22:44:29.227Z,10.10
2024-04-22T22:47:06.715Z,10.10
2024-04-22T22:49:34.195Z,10.10
2024-04-22T22:52:01.321Z,10.10
2024-04-22T22:54:28.524Z,10.10
2024-04-22T22:57:00.230Z,10.00
2024-04-22T22:59:28.434Z,10.00
2024-04-22T23:01:57.090Z,10.00
2024-04-22T23:04:24.659Z,9.90
2024-04-22T23:06:51.790Z,9.90
2024-04-22T23:09:18.838Z,9.80
2024-04-22T23:11:45.980Z,9.80
2024-04-22T23:14:13.049Z,9.70
2024-04-22T23:16:40.171Z,9.70
2024-04-22T23:19:07.251Z,9.60
2024-04-22T23:21:37.230Z,9.60
2024-04-22T23:24:04.509Z,9.50
2024-04-22T23:26:31.542Z,9.50
2024-04-22T23:28:58.721Z,9.50
2024-04-22T23:31:26.194Z,9.50
2024-04-22T23:33:53.250Z,9.60
2024-04-22T23:36:20.268Z,9.60
2024-04-22T23:38:47.276Z,9.60
2024-04-22T23:41:14.376Z,9.60
2024-04-22T23:43:43.704Z,9.60
2024-04-22T23:46:10.712Z,9.60
2024-04-22T23:48:37.885Z,9.60
2024-04-22T23:51:05.132Z,9.50
2024-04-22T23:53:32.221Z,9.50
2024-04-22T23:55:59.248Z,9.50
2024-04-22T23:58:28.725Z,9.40
